sensor_id;sensor_type;location;lat;lon;timestamp;pressure;altitude;pressure_sealevel;temperature;humidity
80198;BME280;69517;52.030;7.106;2023-12-28T00:01:41;99977.47;;;21.28;75.77
80198;BME280;69517;52.030;7.106;2023-12-28T00:04:08;99972.19;;;21.28;75.26
80198;BME280;69517;52.030;7.106;2023-12-28T00:06:35;99962.63;;;21.27;75.84
80198;BME280;69517;52.030;7.106;2023-12-28T00:09:02;99976.75;;;21.26;75.65
80198;BME280;69517;52.030;7.106;2023-12-28T00:11:29;99952.13;;;21.27;75.43
80198;BME280;69517;52.030;7.106;2023-12-28T00:13:55;99965.97;;;21.29;75.13
80198;BME280;69517;52.030;7.106;2023-12-28T00:16:21;99963.47;;;21.28;75.40
80198;BME280;69517;52.030;7.106;2023-12-28T00:18:47;99981.03;;;21.27;75.43
80198;BME280;69517;52.030;7.106;2023-12-28T00:21:14;99982.00;;;21.26;75.39
80198;BME280;69517;52.030;7.106;2023-12-28T00:23:41;99982.22;;;21.23;75.71
80198;BME280;69517;52.030;7.106;2023-12-28T00:26:08;99981.28;;;21.24;75.67
80198;BME280;69517;52.030;7.106;2023-12-28T00:28:34;99976.84;;;21.25;75.41
80198;BME280;69517;52.030;7.106;2023-12-28T00:31:00;99968.38;;;21.21;75.59
80198;BME280;69517;52.030;7.106;2023-12-28T00:33:27;99978.06;;;21.21;75.60
80198;BME280;69517;52.030;7.106;2023-12-28T00:35:53;99976.50;;;21.18;75.71
80198;BME280;69517;52.030;7.106;2023-12-28T00:38:19;99978.28;;;21.18;75.96
80198;BME280;69517;52.030;7.106;2023-12-28T00:40:47;99988.59;;;21.21;75.92
80198;BME280;69517;52.030;7.106;2023-12-28T00:43:13;99983.56;;;21.18;75.54
80198;BME280;69517;52.030;7.106;2023-12-28T00:45:39;99971.72;;;21.12;76.55
80198;BME280;69517;52.030;7.106;2023-12-28T00:48:07;99976.78;;;21.15;75.55
80198;BME280;69517;52.030;7.106;2023-12-28T00:50:33;99981.28;;;21.13;76.10
80198;BME280;69517;52.030;7.106;2023-12-28T00:52:59;99978.75;;;21.12;76.18
80198;BME280;69517;52.030;7.106;2023-12-28T00:55:25;99984.00;;;21.12;76.04
80198;BME280;69517;52.030;7.106;2023-12-28T00:57:54;99974.59;;;21.09;75.74
80198;BME280;69517;52.030;7.106;2023-12-28T01:00:20;99986.06;;;21.08;76.21
80198;BME280;69517;52.030;7.106;2023-12-28T01:02:46;99985.34;;;21.06;76.33
80198;BME280;69517;52.030;7.106;2023-12-28T01:05:13;100001.72;;;21.10;75.74
80198;BME280;69517;52.030;7.106;2023-12-28T01:07:39;100000.25;;;21.05;76.07
80198;BME280;69517;52.030;7.106;2023-12-28T01:10:05;99988.06;;;21.04;75.92
80198;BME280;69517;52.030;7.106;2023-12-28T01:12:32;100000.25;;;21.05;75.80
80198;BME280;69517;52.030;7.106;2023-12-28T01:15:00;100020.47;;;21.05;75.86
80198;BME280;69517;52.030;7.106;2023-12-28T01:17:26;100016.03;;;21.05;75.94
80198;BME280;69517;52.030;7.106;2023-12-28T01:19:53;100012.72;;;21.03;75.70
80198;BME280;69517;52.030;7.106;2023-12-28T01:22:19;100029.44;;;21.02;75.71
80198;BME280;69517;52.030;7.106;2023-12-28T01:24:46;100023.34;;;21.02;75.74
80198;BME280;69517;52.030;7.106;2023-12-28T01:27:14;100028.81;;;20.99;75.61
80198;BME280;69517;52.030;7.106;2023-12-28T01:29:40;100031.22;;;21.02;75.76
80198;BME280;69517;52.030;7.106;2023-12-28T01:32:08;100039.34;;;20.99;75.80
80198;BME280;69517;52.030;7.106;2023-12-28T01:34:34;100039.34;;;20.99;75.68
80198;BME280;69517;52.030;7.106;2023-12-28T01:37:00;100033.38;;;20.97;75.88
80198;BME280;69517;52.030;7.106;2023-12-28T01:39:27;100036.84;;;20.97;75.82
80198;BME280;69517;52.030;7.106;2023-12-28T01:41:53;100030.88;;;20.95;75.96
80198;BME280;69517;52.030;7.106;2023-12-28T01:44:20;100039.59;;;20.96;75.95
80198;BME280;69517;52.030;7.106;2023-12-28T01:46:46;100047.59;;;20.94;76.01
80198;BME280;69517;52.030;7.106;2023-12-28T01:49:14;100037.19;;;20.93;76.21
80198;BME280;69517;52.030;7.106;2023-12-28T01:51:40;100049.38;;;20.94;76.02
80198;BME280;69517;52.030;7.106;2023-12-28T01:54:07;100048.53;;;20.93;75.80
80198;BME280;69517;52.030;7.106;2023-12-28T01:56:34;100045.91;;;20.93;75.89
80198;BME280;69517;52.030;7.106;2023-12-28T01:59:00;100053.94;;;20.92;76.30
80198;BME280;69517;52.030;7.106;2023-12-28T02:01:26;100057.50;;;20.91;76.13
80198;BME280;69517;52.030;7.106;2023-12-28T02:03:53;100061.19;;;20.88;76.14
80198;BME280;69517;52.030;7.106;2023-12-28T02:06:22;100062.97;;;20.88;76.58
80198;BME280;69517;52.030;7.106;2023-12-28T02:08:49;100062.88;;;20.89;76.05
80198;BME280;69517;52.030;7.106;2023-12-28T02:11:15;100060.34;;;20.88;76.17
80198;BME280;69517;52.030;7.106;2023-12-28T02:13:43;100058.56;;;20.88;76.08
80198;BME280;69517;52.030;7.106;2023-12-28T02:16:09;100054.25;;;20.87;75.82
80198;BME280;69517;52.030;7.106;2023-12-28T02:18:38;100063.94;;;20.87;76.23
80198;BME280;69517;52.030;7.106;2023-12-28T02:21:04;100061.31;;;20.87;76.13
80198;BME280;69517;52.030;7.106;2023-12-28T02:23:33;100066.72;;;20.85;76.13
80198;BME280;69517;52.030;7.106;2023-12-28T02:26:01;100064.06;;;20.85;76.16
80198;BME280;69517;52.030;7.106;2023-12-28T02:28:27;100057.03;;;20.86;76.13
80198;BME280;69517;52.030;7.106;2023-12-28T02:30:53;100071.34;;;20.82;76.16
80198;BME280;69517;52.030;7.106;2023-12-28T02:33:22;100075.53;;;20.84;76.06
80198;BME280;69517;52.030;7.106;2023-12-28T02:35:51;100068.59;;;20.83;75.95
80198;BME280;69517;52.030;7.106;2023-12-28T02:38:18;100069.44;;;20.84;75.94
80198;BME280;69517;52.030;7.106;2023-12-28T02:40:45;100056.31;;;20.84;75.79
80198;BME280;69517;52.030;7.106;2023-12-28T02:43:13;100062.63;;;20.81;75.90
80198;BME280;69517;52.030;7.106;2023-12-28T02:45:40;100062.50;;;20.83;75.76
80198;BME280;69517;52.030;7.106;2023-12-28T02:48:06;100053.78;;;20.82;75.73
80198;BME280;69517;52.030;7.106;2023-12-28T02:50:33;100048.66;;;20.81;75.71
80198;BME280;69517;52.030;7.106;2023-12-28T02:52:59;100039.13;;;20.80;75.75
80198;BME280;69517;52.030;7.106;2023-12-28T02:55:26;100052.94;;;20.82;75.74
80198;BME280;69517;52.030;7.106;2023-12-28T02:57:54;100041.97;;;20.77;75.95
80198;BME280;69517;52.030;7.106;2023-12-28T03:00:22;100034.09;;;20.77;75.87
80198;BME280;69517;52.030;7.106;2023-12-28T03:02:48;100033.34;;;20.75;75.98
80198;BME280;69517;52.030;7.106;2023-12-28T03:05:14;100028.09;;;20.75;75.92
80198;BME280;69517;52.030;7.106;2023-12-28T03:07:41;100023.56;;;20.77;76.02
80198;BME280;69517;52.030;7.106;2023-12-28T03:10:08;100026.56;;;20.72;76.13
80198;BME280;69517;52.030;7.106;2023-12-28T03:12:34;100025.63;;;20.73;76.25
80198;BME280;69517;52.030;7.106;2023-12-28T03:15:01;100023.09;;;20.72;76.16
80198;BME280;69517;52.030;7.106;2023-12-28T03:17:28;100027.25;;;20.74;76.18
80198;BME280;69517;52.030;7.106;2023-12-28T03:19:55;100028.34;;;20.72;76.54
80198;BME280;69517;52.030;7.106;2023-12-28T03:22:22;100017.00;;;20.71;76.31
80198;BME280;69517;52.030;7.106;2023-12-28T03:24:48;100008.28;;;20.71;76.13
80198;BME280;69517;52.030;7.106;2023-12-28T03:27:14;100018.06;;;20.69;76.32
80198;BME280;69517;52.030;7.106;2023-12-28T03:29:41;100017.97;;;20.70;76.26
80198;BME280;69517;52.030;7.106;2023-12-28T03:32:07;100019.75;;;20.70;76.37
80198;BME280;69517;52.030;7.106;2023-12-28T03:34:35;100018.91;;;20.69;76.31
80198;BME280;69517;52.030;7.106;2023-12-28T03:37:01;100021.66;;;20.67;76.26
80198;BME280;69517;52.030;7.106;2023-12-28T03:39:28;100020.00;;;20.67;76.50
80198;BME280;69517;52.030;7.106;2023-12-28T03:41:54;100014.59;;;20.68;76.21
80198;BME280;69517;52.030;7.106;2023-12-28T03:44:20;100014.75;;;20.67;76.56
80198;BME280;69517;52.030;7.106;2023-12-28T03:46:47;100015.81;;;20.64;76.62
80198;BME280;69517;52.030;7.106;2023-12-28T03:49:14;100009.72;;;20.63;76.71
80198;BME280;69517;52.030;7.106;2023-12-28T03:51:42;100021.06;;;20.64;76.47
80198;BME280;69517;52.030;7.106;2023-12-28T03:54:08;100011.50;;;20.63;76.53
80198;BME280;69517;52.030;7.106;2023-12-28T03:56:34;100021.06;;;20.64;76.27
80198;BME280;69517;52.030;7.106;2023-12-28T03:59:04;100024.63;;;20.63;76.40
80198;BME280;69517;52.030;7.106;2023-12-28T04:01:31;100028.09;;;20.63;76.40
80198;BME280;69517;52.030;7.106;2023-12-28T04:03:57;100018.44;;;20.64;76.49
80198;BME280;69517;52.030;7.106;2023-12-28T04:06:23;100029.66;;;20.66;76.21
80198;BME280;69517;52.030;7.106;2023-12-28T04:08:51;100035.97;;;20.63;76.33
80198;BME280;69517;52.030;7.106;2023-12-28T04:11:17;100042.19;;;20.62;76.56
80198;BME280;69517;52.030;7.106;2023-12-28T04:13:43;100022.13;;;20.61;76.35
80198;BME280;69517;52.030;7.106;2023-12-28T04:16:11;100028.09;;;20.63;76.28
80198;BME280;69517;52.030;7.106;2023-12-28T04:18:38;100023.47;;;20.67;76.66
80198;BME280;69517;52.030;7.106;2023-12-28T04:21:07;100031.94;;;20.71;76.10
80198;BME280;69517;52.030;7.106;2023-12-28T04:23:33;100035.28;;;20.73;76.05
80198;BME280;69517;52.030;7.106;2023-12-28T04:26:01;100028.94;;;20.75;75.76
80198;BME280;69517;52.030;7.106;2023-12-28T04:28:28;100041.75;;;20.80;75.61
80198;BME280;69517;52.030;7.106;2023-12-28T04:30:54;100032.88;;;20.81;75.46
80198;BME280;69517;52.030;7.106;2023-12-28T04:33:20;100040.75;;;20.81;75.55
80198;BME280;69517;52.030;7.106;2023-12-28T04:35:46;100051.16;;;20.82;75.37
80198;BME280;69517;52.030;7.106;2023-12-28T04:38:13;100045.69;;;20.85;75.24
80198;BME280;69517;52.030;7.106;2023-12-28T04:40:40;100049.84;;;20.88;75.15
80198;BME280;69517;52.030;7.106;2023-12-28T04:43:07;100052.47;;;20.88;75.14
80198;BME280;69517;52.030;7.106;2023-12-28T04:45:34;100035.75;;;20.89;75.27
80198;BME280;69517;52.030;7.106;2023-12-28T04:48:00;100046.03;;;20.92;75.22
80198;BME280;69517;52.030;7.106;2023-12-28T04:50:26;100039.69;;;20.94;74.87
80198;BME280;69517;52.030;7.106;2023-12-28T04:52:52;100034.44;;;20.94;74.93
80198;BME280;69517;52.030;7.106;2023-12-28T04:55:19;100038.63;;;20.97;74.85
80198;BME280;69517;52.030;7.106;2023-12-28T04:57:46;100049.00;;;20.98;74.64
80198;BME280;69517;52.030;7.106;2023-12-28T05:00:14;100032.28;;;20.99;74.78
80198;BME280;69517;52.030;7.106;2023-12-28T05:02:40;100041.84;;;21.00;74.73
80198;BME280;69517;52.030;7.106;2023-12-28T05:05:07;100028.59;;;21.02;74.74
80198;BME280;69517;52.030;7.106;2023-12-28T05:07:34;100025.84;;;21.03;74.66
80198;BME280;69517;52.030;7.106;2023-12-28T05:10:00;100024.88;;;21.04;74.70
80198;BME280;69517;52.030;7.106;2023-12-28T05:12:26;100030.97;;;21.05;74.66
80198;BME280;69517;52.030;7.106;2023-12-28T05:14:52;100022.13;;;21.06;74.58
80198;BME280;69517;52.030;7.106;2023-12-28T05:17:20;100033.59;;;21.05;74.66
80198;BME280;69517;52.030;7.106;2023-12-28T05:19:46;100032.66;;;21.06;74.65
80198;BME280;69517;52.030;7.106;2023-12-28T05:22:13;100035.28;;;21.06;74.62
80198;BME280;69517;52.030;7.106;2023-12-28T05:24:39;100024.75;;;21.06;74.66
80198;BME280;69517;52.030;7.106;2023-12-28T05:27:05;100038.75;;;21.06;74.77
80198;BME280;69517;52.030;7.106;2023-12-28T05:29:31;100032.66;;;21.06;74.79
80198;BME280;69517;52.030;7.106;2023-12-28T05:31:58;100040.41;;;21.08;74.66
80198;BME280;69517;52.030;7.106;2023-12-28T05:34:25;100036.13;;;21.06;74.77
80198;BME280;69517;52.030;7.106;2023-12-28T05:36:52;100050.09;;;21.07;74.79
80198;BME280;69517;52.030;7.106;2023-12-28T05:39:18;100051.03;;;21.06;74.92
80198;BME280;69517;52.030;7.106;2023-12-28T05:41:44;100050.94;;;21.08;74.68
80198;BME280;69517;52.030;7.106;2023-12-28T05:44:12;100048.19;;;21.09;74.68
80198;BME280;69517;52.030;7.106;2023-12-28T05:46:39;100055.94;;;21.11;74.72
80198;BME280;69517;52.030;7.106;2023-12-28T05:49:05;100067.28;;;21.11;74.74
80198;BME280;69517;52.030;7.106;2023-12-28T05:51:38;100056.91;;;21.10;74.68
80198;BME280;69517;52.030;7.106;2023-12-28T05:54:05;100063.72;;;21.12;74.56
80198;BME280;69517;52.030;7.106;2023-12-28T05:56:32;100078.63;;;21.12;74.57
80198;BME280;69517;52.030;7.106;2023-12-28T05:58:58;100076.97;;;21.11;74.65
80198;BME280;69517;52.030;7.106;2023-12-28T06:01:24;100094.41;;;21.12;74.75
80198;BME280;69517;52.030;7.106;2023-12-28T06:03:51;100093.47;;;21.13;74.64
80198;BME280;69517;52.030;7.106;2023-12-28T06:06:17;100092.50;;;21.14;74.53
80198;BME280;69517;52.030;7.106;2023-12-28T06:08:45;100090.38;;;21.19;74.52
80198;BME280;69517;52.030;7.106;2023-12-28T06:11:11;100081.91;;;21.26;74.10
80198;BME280;69517;52.030;7.106;2023-12-28T06:13:37;100074.94;;;21.36;73.69
80198;BME280;69517;52.030;7.106;2023-12-28T06:16:04;100073.50;;;21.43;73.38
80198;BME280;69517;52.030;7.106;2023-12-28T06:18:31;100088.81;;;21.50;73.13
80198;BME280;69517;52.030;7.106;2023-12-28T06:20:57;100080.69;;;21.53;73.09
80198;BME280;69517;52.030;7.106;2023-12-28T06:23:23;100082.34;;;21.54;72.97
80198;BME280;69517;52.030;7.106;2023-12-28T06:25:51;100085.69;;;21.56;72.85
80198;BME280;69517;52.030;7.106;2023-12-28T06:28:17;100088.91;;;21.59;72.92
80198;BME280;69517;52.030;7.106;2023-12-28T06:30:43;100086.16;;;21.61;72.73
80198;BME280;69517;52.030;7.106;2023-12-28T06:33:10;100082.56;;;21.62;72.64
80198;BME280;69517;52.030;7.106;2023-12-28T06:35:36;100092.03;;;21.64;72.71
80198;BME280;69517;52.030;7.106;2023-12-28T06:38:02;100070.13;;;21.64;72.62
80198;BME280;69517;52.030;7.106;2023-12-28T06:40:29;100077.06;;;21.65;72.80
80198;BME280;69517;52.030;7.106;2023-12-28T06:42:56;100089.25;;;21.66;72.84
80198;BME280;69517;52.030;7.106;2023-12-28T06:45:22;100076.81;;;21.68;72.64
80198;BME280;69517;52.030;7.106;2023-12-28T06:47:52;100084.25;;;21.63;72.72
80198;BME280;69517;52.030;7.106;2023-12-28T06:50:19;100091.88;;;21.66;72.80
80198;BME280;69517;52.030;7.106;2023-12-28T06:52:45;100089.84;;;21.69;72.77
80198;BME280;69517;52.030;7.106;2023-12-28T06:55:11;100115.31;;;21.69;72.79
80198;BME280;69517;52.030;7.106;2023-12-28T06:57:37;100106.47;;;21.70;72.85
80198;BME280;69517;52.030;7.106;2023-12-28T07:00:06;100107.16;;;21.72;72.76
80198;BME280;69517;52.030;7.106;2023-12-28T07:02:32;100113.41;;;21.71;72.69
80198;BME280;69517;52.030;7.106;2023-12-28T07:04:59;100110.78;;;21.71;72.78
80198;BME280;69517;52.030;7.106;2023-12-28T07:07:25;100115.69;;;21.64;73.31
80198;BME280;69517;52.030;7.106;2023-12-28T07:09:51;100104.91;;;21.67;73.20
80198;BME280;69517;52.030;7.106;2023-12-28T07:12:17;100109.22;;;21.68;73.22
80198;BME280;69517;52.030;7.106;2023-12-28T07:14:45;100103.22;;;21.66;73.43
80198;BME280;69517;52.030;7.106;2023-12-28T07:17:13;100096.44;;;21.64;73.64
80198;BME280;69517;52.030;7.106;2023-12-28T07:19:42;100096.44;;;21.64;73.69
80198;BME280;69517;52.030;7.106;2023-12-28T07:22:08;100099.75;;;21.66;73.63
80198;BME280;69517;52.030;7.106;2023-12-28T07:24:34;100094.38;;;21.67;73.70
80198;BME280;69517;52.030;7.106;2023-12-28T07:27:01;100074.28;;;21.66;73.69
80198;BME280;69517;52.030;7.106;2023-12-28T07:29:27;100091.03;;;21.65;73.69
80198;BME280;69517;52.030;7.106;2023-12-28T07:31:53;100093.66;;;21.65;73.57
80198;BME280;69517;52.030;7.106;2023-12-28T07:34:21;100092.84;;;21.65;73.71
80198;BME280;69517;52.030;7.106;2023-12-28T07:36:48;100087.59;;;21.65;73.65
80198;BME280;69517;52.030;7.106;2023-12-28T07:39:14;100099.91;;;21.64;73.94
80198;BME280;69517;52.030;7.106;2023-12-28T07:41:40;100100.03;;;21.63;73.74
80198;BME280;69517;52.030;7.106;2023-12-28T07:44:07;100100.88;;;21.63;73.81
80198;BME280;69517;52.030;7.106;2023-12-28T07:46:33;100102.66;;;21.63;73.78
80198;BME280;69517;52.030;7.106;2023-12-28T07:48:59;100116.19;;;20.67;66.82
80198;BME280;69517;52.030;7.106;2023-12-28T07:51:27;100119.78;;;19.35;64.35
80198;BME280;69517;52.030;7.106;2023-12-28T07:53:53;100124.63;;;19.03;63.11
80198;BME280;69517;52.030;7.106;2023-12-28T07:56:19;100132.91;;;19.10;62.95
80198;BME280;69517;52.030;7.106;2023-12-28T07:58:46;100130.56;;;19.43;63.91
80198;BME280;69517;52.030;7.106;2023-12-28T08:01:12;100130.06;;;19.87;64.50
80198;BME280;69517;52.030;7.106;2023-12-28T08:03:38;100131.13;;;20.32;64.50
80198;BME280;69517;52.030;7.106;2023-12-28T08:06:05;100131.84;;;20.69;64.60
80198;BME280;69517;52.030;7.106;2023-12-28T08:08:32;100144.44;;;20.88;64.51
80198;BME280;69517;52.030;7.106;2023-12-28T08:10:59;100141.59;;;21.02;64.37
80198;BME280;69517;52.030;7.106;2023-12-28T08:13:25;100136.25;;;21.15;64.26
80198;BME280;69517;52.030;7.106;2023-12-28T08:15:51;100139.97;;;21.23;64.39
80198;BME280;69517;52.030;7.106;2023-12-28T08:18:18;100146.78;;;21.26;64.91
80198;BME280;69517;52.030;7.106;2023-12-28T08:20:44;100148.22;;;21.30;65.27
80198;BME280;69517;52.030;7.106;2023-12-28T08:23:10;100147.28;;;21.31;65.53
80198;BME280;69517;52.030;7.106;2023-12-28T08:25:38;100154.09;;;21.33;65.87
80198;BME280;69517;52.030;7.106;2023-12-28T08:28:04;100151.22;;;21.36;66.16
80198;BME280;69517;52.030;7.106;2023-12-28T08:30:31;100152.31;;;21.34;66.72
80198;BME280;69517;52.030;7.106;2023-12-28T08:32:57;100145.38;;;21.33;67.08
80198;BME280;69517;52.030;7.106;2023-12-28T08:35:23;100165.31;;;21.35;67.28
80198;BME280;69517;52.030;7.106;2023-12-28T08:37:50;100151.22;;;21.36;67.35
80198;BME280;69517;52.030;7.106;2023-12-28T08:40:16;100158.16;;;21.37;67.66
80198;BME280;69517;52.030;7.106;2023-12-28T08:42:44;100173.69;;;21.40;67.88
80198;BME280;69517;52.030;7.106;2023-12-28T08:45:10;100167.59;;;21.40;68.09
80198;BME280;69517;52.030;7.106;2023-12-28T08:47:36;100170.09;;;21.41;68.44
80198;BME280;69517;52.030;7.106;2023-12-28T08:50:03;100173.56;;;21.42;68.51
80198;BME280;69517;52.030;7.106;2023-12-28T08:52:30;100174.75;;;21.38;68.62
80198;BME280;69517;52.030;7.106;2023-12-28T08:54:57;100174.97;;;21.35;68.99
80198;BME280;69517;52.030;7.106;2023-12-28T08:57:23;100175.72;;;21.37;68.85
80198;BME280;69517;52.030;7.106;2023-12-28T08:59:51;100182.75;;;21.36;69.02
80198;BME280;69517;52.030;7.106;2023-12-28T09:02:17;100176.81;;;21.34;68.97
80198;BME280;69517;52.030;7.106;2023-12-28T09:04:43;100169.16;;;21.31;69.13
80198;BME280;69517;52.030;7.106;2023-12-28T09:07:10;100154.31;;;21.30;69.04
80198;BME280;69517;52.030;7.106;2023-12-28T09:09:36;100154.31;;;21.30;69.01
80198;BME280;69517;52.030;7.106;2023-12-28T09:12:02;100159.56;;;21.30;69.03
80198;BME280;69517;52.030;7.106;2023-12-28T09:14:29;100167.25;;;21.33;68.97
80198;BME280;69517;52.030;7.106;2023-12-28T09:16:56;100154.22;;;21.32;69.13
80198;BME280;69517;52.030;7.106;2023-12-28T09:19:23;100163.03;;;21.31;69.24
80198;BME280;69517;52.030;7.106;2023-12-28T09:21:49;100170.09;;;21.30;69.25
80198;BME280;69517;52.030;7.106;2023-12-28T09:24:15;100177.75;;;21.33;69.32
80198;BME280;69517;52.030;7.106;2023-12-28T09:26:43;100179.53;;;21.33;69.40
80198;BME280;69517;52.030;7.106;2023-12-28T09:29:10;100193.53;;;21.33;69.42
80198;BME280;69517;52.030;7.106;2023-12-28T09:31:36;100183.84;;;21.34;69.57
80198;BME280;69517;52.030;7.106;2023-12-28T09:34:04;100189.81;;;21.36;69.47
80198;BME280;69517;52.030;7.106;2023-12-28T09:36:30;100188.97;;;21.35;69.56
80198;BME280;69517;52.030;7.106;2023-12-28T09:38:57;100215.88;;;21.39;69.79
80198;BME280;69517;52.030;7.106;2023-12-28T09:41:25;100205.84;;;21.44;69.72
80198;BME280;69517;52.030;7.106;2023-12-28T09:43:53;100206.56;;;21.46;70.12
80198;BME280;69517;52.030;7.106;2023-12-28T09:46:19;100225.69;;;21.48;70.33
80198;BME280;69517;52.030;7.106;2023-12-28T09:48:46;100204.63;;;21.48;70.16
80198;BME280;69517;52.030;7.106;2023-12-28T09:51:14;100224.38;;;21.54;70.38
80198;BME280;69517;52.030;7.106;2023-12-28T09:53:41;100206.31;;;21.60;70.17
80198;BME280;69517;52.030;7.106;2023-12-28T09:56:08;100216.25;;;21.57;70.21
80198;BME280;69517;52.030;7.106;2023-12-28T09:58:35;100214.22;;;21.49;70.62
80198;BME280;69517;52.030;7.106;2023-12-28T10:01:01;100208.00;;;21.50;70.70
80198;BME280;69517;52.030;7.106;2023-12-28T10:03:28;100212.69;;;21.47;71.20
80198;BME280;69517;52.030;7.106;2023-12-28T10:05:54;100205.97;;;21.42;70.79
80198;BME280;69517;52.030;7.106;2023-12-28T10:08:22;100198.78;;;21.44;70.74
80198;BME280;69517;52.030;7.106;2023-12-28T10:10:49;100205.47;;;21.49;70.54
80198;BME280;69517;52.030;7.106;2023-12-28T10:13:19;100201.91;;;21.50;70.71
80198;BME280;69517;52.030;7.106;2023-12-28T10:15:45;100210.63;;;21.50;70.61
80198;BME280;69517;52.030;7.106;2023-12-28T10:18:12;100213.16;;;21.52;70.73
80198;BME280;69517;52.030;7.106;2023-12-28T10:20:38;100203.47;;;21.52;71.20
80198;BME280;69517;52.030;7.106;2023-12-28T10:23:04;100211.22;;;21.54;71.12
80198;BME280;69517;52.030;7.106;2023-12-28T10:25:33;100214.47;;;21.57;71.10
80198;BME280;69517;52.030;7.106;2023-12-28T10:28:03;100225.00;;;21.57;71.61
80198;BME280;69517;52.030;7.106;2023-12-28T10:30:30;100222.25;;;21.59;71.56
80198;BME280;69517;52.030;7.106;2023-12-28T10:32:57;100230.25;;;21.57;71.84
80198;BME280;69517;52.030;7.106;2023-12-28T10:35:23;100212.69;;;21.58;71.90
80198;BME280;69517;52.030;7.106;2023-12-28T10:37:49;100209.31;;;21.56;71.97
80198;BME280;69517;52.030;7.106;2023-12-28T10:40:17;100212.06;;;21.54;72.19
80198;BME280;69517;52.030;7.106;2023-12-28T10:42:51;100214.94;;;21.51;72.23
80198;BME280;69517;52.030;7.106;2023-12-28T10:45:18;100213.38;;;21.49;72.26
80198;BME280;69517;52.030;7.106;2023-12-28T10:47:47;100208.13;;;21.49;72.37
80198;BME280;69517;52.030;7.106;2023-12-28T10:50:18;100219.59;;;21.48;72.39
80198;BME280;69517;52.030;7.106;2023-12-28T10:52:45;100201.31;;;21.46;72.59
80198;BME280;69517;52.030;7.106;2023-12-28T10:55:18;100200.34;;;21.47;72.57
80198;BME280;69517;52.030;7.106;2023-12-28T10:57:55;100205.38;;;21.50;72.46
80198;BME280;69517;52.030;7.106;2023-12-28T11:00:25;100196.63;;;21.50;72.29
80198;BME280;69517;52.030;7.106;2023-12-28T11:02:52;100194.97;;;21.49;72.25
80198;BME280;69517;52.030;7.106;2023-12-28T11:05:18;100196.63;;;21.50;72.21
80198;BME280;69517;52.030;7.106;2023-12-28T11:07:45;100192.34;;;21.49;72.18
80198;BME280;69517;52.030;7.106;2023-12-28T11:10:13;100194.00;;;21.50;72.20
80198;BME280;69517;52.030;7.106;2023-12-28T11:12:39;100189.59;;;21.50;72.18
80198;BME280;69517;52.030;7.106;2023-12-28T11:15:08;100187.81;;;21.51;72.04
80198;BME280;69517;52.030;7.106;2023-12-28T11:17:36;100194.00;;;21.50;72.25
80198;BME280;69517;52.030;7.106;2023-12-28T11:20:03;100206.31;;;21.49;72.20
80198;BME280;69517;52.030;7.106;2023-12-28T11:22:30;100209.06;;;21.48;72.34
80198;BME280;69517;52.030;7.106;2023-12-28T11:24:57;100182.06;;;21.45;72.34
80198;BME280;69517;52.030;7.106;2023-12-28T11:27:23;100188.28;;;21.44;72.16
80198;BME280;69517;52.030;7.106;2023-12-28T11:29:51;100167.97;;;21.47;72.24
80198;BME280;69517;52.030;7.106;2023-12-28T11:32:20;100176.66;;;21.47;72.12
80198;BME280;69517;52.030;7.106;2023-12-28T11:34:48;100169.59;;;21.48;71.86
80198;BME280;69517;52.030;7.106;2023-12-28T11:37:22;100167.97;;;21.47;71.67
80198;BME280;69517;52.030;7.106;2023-12-28T11:39:49;100184.56;;;21.47;71.66
80198;BME280;69517;52.030;7.106;2023-12-28T11:42:18;100175.84;;;21.47;71.59
80198;BME280;69517;52.030;7.106;2023-12-28T11:44:45;100176.66;;;21.47;71.35
80198;BME280;69517;52.030;7.106;2023-12-28T11:47:12;100167.97;;;21.47;71.20
80198;BME280;69517;52.030;7.106;2023-12-28T11:49:40;100164.34;;;21.48;71.10
80198;BME280;69517;52.030;7.106;2023-12-28T11:52:06;100163.50;;;21.47;71.26
80198;BME280;69517;52.030;7.106;2023-12-28T11:54:33;100154.56;;;21.50;70.98
80198;BME280;69517;52.030;7.106;2023-12-28T11:56:59;100166.88;;;21.49;71.13
80198;BME280;69517;52.030;7.106;2023-12-28T11:59:25;100155.28;;;21.52;70.90
80198;BME280;69517;52.030;7.106;2023-12-28T12:01:52;100163.75;;;21.55;70.74
80198;BME280;69517;52.030;7.106;2023-12-28T12:04:18;100155.03;;;21.55;70.74
80198;BME280;69517;52.030;7.106;2023-12-28T12:06:46;100159.44;;;21.54;70.81
80198;BME280;69517;52.030;7.106;2023-12-28T12:09:12;100151.44;;;21.56;70.99
80198;BME280;69517;52.030;7.106;2023-12-28T12:11:39;100151.44;;;21.56;71.07
80198;BME280;69517;52.030;7.106;2023-12-28T12:14:07;100157.66;;;21.55;71.24
80198;BME280;69517;52.030;7.106;2023-12-28T12:16:34;100165.44;;;21.56;71.30
80198;BME280;69517;52.030;7.106;2023-12-28T12:19:00;100152.28;;;21.56;71.46
80198;BME280;69517;52.030;7.106;2023-12-28T12:21:26;100158.50;;;21.55;71.38
80198;BME280;69517;52.030;7.106;2023-12-28T12:23:55;100154.06;;;21.56;71.44
80198;BME280;69517;52.030;7.106;2023-12-28T12:26:21;100165.56;;;21.55;71.49
80198;BME280;69517;52.030;7.106;2023-12-28T12:28:48;100166.38;;;21.55;71.73
80198;BME280;69517;52.030;7.106;2023-12-28T12:31:14;100171.75;;;21.54;71.74
80198;BME280;69517;52.030;7.106;2023-12-28T12:33:41;100158.59;;;21.54;71.63
80198;BME280;69517;52.030;7.106;2023-12-28T12:36:07;100156.25;;;21.51;71.85
80198;BME280;69517;52.030;7.106;2023-12-28T12:38:34;100155.28;;;21.52;71.76
80198;BME280;69517;52.030;7.106;2023-12-28T12:41:02;100142.72;;;21.55;71.86
80198;BME280;69517;52.030;7.106;2023-12-28T12:43:28;100148.81;;;21.56;71.72
80198;BME280;69517;52.030;7.106;2023-12-28T12:45:54;100146.19;;;21.56;71.79
80198;BME280;69517;52.030;7.106;2023-12-28T12:48:21;100150.50;;;21.57;71.69